createdAt,value
2023-05-14T00:00:08.325Z,11.47
2023-05-14T00:00:21.750Z,11.46
2023-05-14T00:00:33.612Z,11.46
2023-05-14T00:00:45.377Z,11.46
2023-05-14T00:00:57.115Z,11.47
2023-05-14T00:01:08.797Z,11.46
2023-05-14T00:01:20.559Z,11.46
2023-05-14T00:01:32.227Z,11.46
2023-05-14T00:01:43.940Z,11.47
2023-05-14T00:01:55.612Z,11.46
2023-05-14T00:02:07.371Z,11.46
2023-05-14T00:02:19.185Z,11.46
2023-05-14T00:02:31.060Z,11.45
2023-05-14T00:02:42.978Z,11.47
2023-05-14T00:02:55.053Z,11.47
2023-05-14T00:03:07.106Z,11.46
2023-05-14T00:03:19.046Z,11.47
2023-05-14T00:03:30.999Z,11.47
2023-05-14T00:03:42.854Z,11.47
2023-05-14T00:03:54.677Z,11.47
2023-05-14T00:04:06.540Z,11.46
2023-05-14T00:04:18.350Z,11.46
2023-05-14T00:04:30.155Z,11.45
2023-05-14T00:04:41.943Z,11.47
2023-05-14T00:04:53.608Z,11.46
2023-05-14T00:05:06.075Z,11.46
2023-05-14T00:05:17.740Z,11.46
2023-05-14T00:05:29.412Z,11.45
2023-05-14T00:05:41.186Z,11.45
2023-05-14T00:05:52.832Z,11.45
2023-05-14T00:06:04.998Z,11.45
2023-05-14T00:06:16.690Z,11.44
2023-05-14T00:06:28.420Z,11.45
2023-05-14T00:06:40.150Z,11.44
2023-05-14T00:06:51.824Z,11.45
2023-05-14T00:07:03.595Z,11.44
2023-05-14T00:07:15.338Z,11.45
2023-05-14T00:07:27.038Z,11.45
2023-05-14T00:07:38.716Z,11.44
2023-05-14T00:07:50.388Z,11.45
2023-05-14T00:08:02.532Z,11.43
2023-05-14T00:08:14.236Z,11.43
2023-05-14T00:08:25.938Z,11.43
2023-05-14T00:08:37.676Z,11.43
2023-05-14T00:08:49.424Z,11.43
2023-05-14T00:09:01.124Z,11.44
2023-05-14T00:09:13.192Z,11.45
2023-05-14T00:09:24.969Z,11.43
2023-05-14T00:09:36.669Z,11.45
2023-05-14T00:09:48.366Z,11.42
2023-05-14T00:10:00.385Z,11.43
2023-05-14T00:10:12.063Z,11.44
2023-05-14T00:10:23.949Z,11.42
2023-05-14T00:10:35.934Z,11.42
2023-05-14T00:10:47.652Z,11.42
2023-05-14T00:10:59.420Z,11.43
2023-05-14T00:11:11.103Z,11.42
2023-05-14T00:11:22.837Z,11.44
2023-05-14T00:11:34.526Z,11.42
2023-05-14T00:11:46.164Z,11.43
2023-05-14T00:11:57.908Z,11.41
2023-05-14T00:12:09.871Z,11.42
2023-05-14T00:12:21.576Z,11.41
2023-05-14T00:12:33.371Z,11.41
2023-05-14T00:12:45.078Z,11.41
2023-05-14T00:12:56.792Z,11.40
2023-05-14T00:13:08.757Z,11.39
2023-05-14T00:13:20.434Z,11.40
2023-05-14T00:13:32.138Z,11.38
2023-05-14T00:13:43.847Z,11.39
2023-05-14T00:13:55.554Z,11.40
2023-05-14T00:14:07.249Z,11.40
2023-05-14T00:14:20.269Z,11.41
2023-05-14T00:14:31.967Z,11.41
2023-05-14T00:14:43.641Z,11.40
2023-05-14T00:14:55.460Z,11.41
2023-05-14T00:15:08.636Z,11.39
2023-05-14T00:15:20.352Z,11.41
2023-05-14T00:15:34.076Z,11.40
2023-05-14T00:15:46.220Z,11.39
2023-05-14T00:15:57.970Z,11.39
2023-05-14T00:16:09.803Z,11.39
2023-05-14T00:16:21.617Z,11.38
2023-05-14T00:16:33.410Z,11.37
2023-05-14T00:16:45.150Z,11.38
2023-05-14T00:16:56.852Z,11.38
2023-05-14T00:17:08.522Z,11.39
2023-05-14T00:17:20.295Z,11.39
2023-05-14T00:17:32.006Z,11.38
2023-05-14T00:17:43.819Z,11.37
2023-05-14T00:17:55.639Z,11.37
2023-05-14T00:18:07.412Z,11.38
2023-05-14T00:18:19.310Z,11.38
2023-05-14T00:18:31.162Z,11.38
2023-05-14T00:18:42.944Z,11.37
2023-05-14T00:18:54.694Z,11.38
2023-05-14T00:19:06.511Z,11.37
2023-05-14T00:19:18.391Z,11.36
2023-05-14T00:19:30.099Z,11.36
2023-05-14T00:19:41.880Z,11.37
2023-05-14T00:19:53.573Z,11.36
2023-05-14T00:20:06.354Z,11.36
2023-05-14T00:20:18.142Z,11.37
2023-05-14T00:20:30.235Z,11.37
2023-05-14T00:20:41.931Z,11.36
2023-05-14T00:20:53.689Z,11.36
2023-05-14T00:21:05.340Z,11.36
2023-05-14T00:21:16.976Z,11.36
2023-05-14T00:21:28.628Z,11.37
2023-05-14T00:21:40.454Z,11.36
2023-05-14T00:21:52.228Z,11.35
2023-05-14T00:22:03.951Z,11.36
2023-05-14T00:22:15.625Z,11.36
2023-05-14T00:22:27.334Z,11.35
2023-05-14T00:22:39.400Z,11.35
2023-05-14T00:22:51.070Z,11.35
2023-05-14T00:23:02.752Z,11.35
2023-05-14T00:23:14.386Z,11.34
2023-05-14T00:23:26.104Z,11.36
2023-05-14T00:23:37.746Z,11.34
2023-05-14T00:23:49.474Z,11.34
2023-05-14T00:24:01.182Z,11.34
2023-05-14T00:24:12.854Z,11.33
2023-05-14T00:24:24.551Z,11.33
2023-05-14T00:24:36.689Z,11.35
2023-05-14T00:24:48.355Z,11.35
2023-05-14T00:24:59.966Z,11.33
2023-05-14T00:25:11.633Z,11.34
2023-05-14T00:25:23.530Z,11.34
2023-05-14T00:25:36.606Z,11.35
2023-05-14T00:25:48.269Z,11.35
2023-05-14T00:26:00.073Z,11.35
2023-05-14T00:26:11.777Z,11.34
2023-05-14T00:26:23.769Z,11.33
2023-05-14T00:26:35.614Z,11.34
2023-05-14T00:26:47.338Z,11.34
2023-05-14T00:26:59.045Z,11.33
2023-05-14T00:27:10.705Z,11.33
2023-05-14T00:27:22.393Z,11.32
2023-05-14T00:27:34.120Z,11.34
2023-05-14T00:27:45.798Z,11.32
2023-05-14T00:27:57.547Z,11.33
2023-05-14T00:28:09.185Z,11.33
2023-05-14T00:28:21.172Z,11.33
2023-05-14T00:28:33.545Z,11.33
2023-05-14T00:28:45.226Z,11.33
2023-05-14T00:28:56.898Z,11.34
2023-05-14T00:29:08.601Z,11.33
2023-05-14T00:29:21.671Z,11.34
2023-05-14T00:29:33.340Z,11.32
2023-05-14T00:29:45.024Z,11.32
2023-05-14T00:29:56.752Z,11.32
2023-05-14T00:30:09.188Z,11.30
2023-05-14T00:30:20.975Z,11.32
2023-05-14T00:30:32.825Z,11.32
2023-05-14T00:30:44.624Z,11.32
2023-05-14T00:30:56.442Z,11.32
2023-05-14T00:31:08.233Z,11.33
2023-05-14T00:31:19.986Z,11.32
2023-05-14T00:31:31.790Z,11.32
2023-05-14T00:31:43.655Z,11.32
2023-05-14T00:31:55.433Z,11.32
2023-05-14T00:32:07.983Z,11.32
2023-05-14T00:32:19.725Z,11.33
2023-05-14T00:32:31.654Z,11.30
2023-05-14T00:32:43.443Z,11.31
2023-05-14T00:32:55.242Z,11.30
2023-05-14T00:33:07.155Z,11.30
2023-05-14T00:33:18.962Z,11.29
2023-05-14T00:33:30.778Z,11.30
2023-05-14T00:33:42.457Z,11.30
2023-05-14T00:33:54.156Z,11.30
2023-05-14T00:34:05.892Z,11.29
2023-05-14T00:34:17.640Z,11.30
2023-05-14T00:34:29.361Z,11.31
2023-05-14T00:34:41.669Z,11.30
2023-05-14T00:34:53.391Z,11.31
2023-05-14T00:35:05.891Z,11.30
2023-05-14T00:35:17.635Z,11.30
2023-05-14T00:35:29.365Z,11.29
2023-05-14T00:35:41.051Z,11.30
2023-05-14T00:35:52.777Z,11.29
2023-05-14T00:36:04.720Z,11.31
2023-05-14T00:36:16.543Z,11.30
2023-05-14T00:36:28.277Z,11.29
2023-05-14T00:36:40.159Z,11.28
2023-05-14T00:36:51.895Z,11.30
2023-05-14T00:37:03.632Z,11.30
2023-05-14T00:37:15.339Z,11.30
2023-05-14T00:37:27.088Z,11.30
2023-05-14T00:37:39.056Z,11.30
2023-05-14T00:37:50.733Z,11.30
2023-05-14T00:38:03.058Z,11.30
2023-05-14T00:38:14.920Z,11.30
2023-05-14T00:38:26.651Z,11.31
2023-05-14T00:38:38.373Z,11.31
2023-05-14T00:38:50.140Z,11.29
2023-05-14T00:39:01.873Z,11.30
2023-05-14T00:39:13.606Z,11.28
2023-05-14T00:39:25.331Z,11.28
2023-05-14T00:39:37.035Z,11.27
2023-05-14T00:39:48.772Z,11.29
2023-05-14T00:40:00.441Z,11.27
2023-05-14T00:40:12.852Z,11.27
2023-05-14T00:40:26.481Z,11.27
2023-05-14T00:40:38.344Z,11.27
2023-05-14T00:40:50.182Z,11.27
2023-05-14T00:41:01.890Z,11.28
2023-05-14T00:41:13.573Z,11.28
2023-05-14T00:41:26.258Z,11.27
2023-05-14T00:41:38.111Z,11.27
2023-05-14T00:41:49.850Z,11.28
2023-05-14T00:42:01.728Z,11.27
2023-05-14T00:42:13.399Z,11.28
2023-05-14T00:42:25.129Z,11.27
2023-05-14T00:42:37.055Z,11.28
2023-05-14T00:42:48.768Z,11.26
2023-05-14T00:43:00.487Z,11.28
2023-05-14T00:43:12.200Z,11.26
2023-05-14T00:43:24.218Z,11.26
2023-05-14T00:43:35.908Z,11.27
2023-05-14T00:43:47.683Z,11.27
2023-05-14T00:43:59.533Z,11.27
2023-05-14T00:44:11.232Z,11.27
2023-05-14T00:44:24.299Z,11.26
2023-05-14T00:44:36.056Z,11.26
2023-05-14T00:44:47.846Z,11.26
2023-05-14T00:44:59.587Z,11.26
2023-05-14T00:45:11.511Z,11.26
2023-05-14T00:45:23.218Z,11.27
2023-05-14T00:45:35.264Z,11.27
2023-05-14T00:45:48.334Z,11.27
2023-05-14T00:46:00.599Z,11.26
2023-05-14T00:46:12.421Z,11.25
2023-05-14T00:46:24.189Z,11.27
2023-05-14T00:46:36.058Z,11.27
2023-05-14T00:46:48.012Z,11.27
2023-05-14T00:47:00.115Z,11.26
2023-05-14T00:47:12.859Z,11.26
2023-05-14T00:47:24.698Z,11.26
2023-05-14T00:47:37.613Z,11.27
2023-05-14T00:47:49.539Z,11.26
2023-05-14T00:48:01.714Z,11.25
2023-05-14T00:48:14.044Z,11.26
2023-05-14T00:48:25.945Z,11.26
2023-05-14T00:48:37.837Z,11.27
2023-05-14T00:48:49.583Z,11.26
2023-05-14T00:49:01.601Z,11.26
2023-05-14T00:49:13.499Z,11.27
2023-05-14T00:49:25.598Z,11.28
2023-05-14T00:49:37.424Z,11.27
2023-05-14T00:49:49.209Z,11.26
2023-05-14T00:50:01.442Z,11.28
2023-05-14T00:50:14.801Z,11.28
2023-05-14T00:50:26.985Z,11.28
2023-05-14T00:50:38.997Z,11.28
2023-05-14T00:50:51.454Z,11.28
2023-05-14T00:51:03.471Z,11.28
2023-05-14T00:51:15.890Z,11.28
2023-05-14T00:51:27.767Z,11.29
2023-05-14T00:51:40.371Z,11.28
2023-05-14T00:51:52.821Z,11.28
2023-05-14T00:52:05.096Z,11.28
2023-05-14T00:52:17.761Z,11.28
2023-05-14T00:52:29.676Z,11.28
2023-05-14T00:52:42.066Z,11.29
2023-05-14T00:52:53.828Z,11.28
2023-05-14T00:53:05.597Z,11.26
2023-05-14T00:53:18.635Z,11.29
2023-05-14T00:53:31.377Z,11.28
2023-05-14T00:53:43.211Z,11.28
2023-05-14T00:53:55.364Z,11.27
2023-05-14T00:54:07.952Z,11.26
2023-05-14T00:54:20.762Z,11.28
2023-05-14T00:54:32.969Z,11.28
2023-05-14T00:54:46.496Z,11.28
2023-05-14T00:54:59.120Z,11.27
2023-05-14T00:55:15.023Z,11.26
2023-05-14T00:55:27.548Z,11.25
2023-05-14T00:55:59.642Z,11.28
2023-05-14T00:56:11.514Z,11.28
2023-05-14T00:56:23.731Z,11.28
2023-05-14T00:56:35.734Z,11.28
2023-05-14T00:56:48.265Z,11.27
2023-05-14T00:57:00.838Z,11.26
2023-05-14T00:57:12.590Z,11.27
2023-05-14T00:57:24.363Z,11.26
2023-05-14T00:57:36.865Z,11.27
2023-05-14T00:57:50.272Z,11.27
2023-05-14T00:58:04.403Z,11.27
2023-05-14T00:58:17.320Z,11.26
2023-05-14T00:58:29.401Z,11.27
2023-05-14T00:58:41.120Z,11.27
2023-05-14T00:58:52.843Z,11.26
2023-05-14T00:59:04.593Z,11.26
2023-05-14T00:59:16.446Z,11.25
2023-05-14T00:59:29.798Z,11.25
2023-05-14T00:59:41.764Z,11.24
2023-05-14T00:59:53.697Z,11.24
2023-05-14T01:00:06.885Z,11.23
2023-05-14T01:00:19.141Z,11.24
2023-05-14T01:00:30.898Z,11.24
2023-05-14T01:00:42.710Z,11.24
2023-05-14T01:00:54.608Z,11.24
2023-05-14T01:01:06.378Z,11.24
2023-05-14T01:01:18.203Z,11.25
2023-05-14T01:01:30.054Z,11.23
2023-05-14T01:01:42.309Z,11.23
2023-05-14T01:01:54.384Z,11.24
2023-05-14T01:02:06.393Z,11.23
2023-05-14T01:02:18.093Z,11.23
2023-05-14T01:02:29.929Z,11.23
2023-05-14T01:02:41.746Z,11.23
2023-05-14T01:02:53.865Z,11.22
2023-05-14T01:03:06.279Z,11.24
2023-05-14T01:03:18.149Z,11.23
2023-05-14T01:03:30.849Z,11.23
2023-05-14T01:03:43.376Z,11.22
2023-05-14T01:03:56.283Z,11.22
2023-05-14T01:04:10.380Z,11.23
2023-05-14T01:04:22.219Z,11.23
2023-05-14T01:04:34.386Z,11.23
2023-05-14T01:04:46.125Z,11.24
2023-05-14T01:04:58.126Z,11.24
2023-05-14T01:05:09.944Z,11.25
2023-05-14T01:05:25.887Z,11.25
2023-05-14T01:05:53.645Z,11.24
2023-05-14T01:06:13.107Z,11.23
2023-05-14T01:06:35.009Z,11.24
2023-05-14T01:06:55.135Z,11.24
2023-05-14T01:07:14.148Z,11.26
2023-05-14T01:07:33.494Z,11.24
2023-05-14T01:07:55.104Z,11.24
2023-05-14T01:08:13.257Z,11.24
2023-05-14T01:08:36.536Z,11.25
2023-05-14T01:09:01.399Z,11.24
2023-05-14T01:09:18.752Z,11.24
2023-05-14T01:09:42.511Z,11.24
2023-05-14T01:09:59.054Z,11.23
2023-05-14T01:10:15.405Z,11.23
2023-05-14T01:10:32.561Z,11.22
2023-05-14T01:10:51.112Z,11.22
2023-05-14T01:11:07.483Z,11.23
2023-05-14T01:11:22.400Z,11.23
2023-05-14T01:11:40.268Z,11.21
2023-05-14T01:11:59.472Z,11.22
2023-05-14T01:12:17.245Z,11.22
2023-05-14T01:12:34.451Z,11.23
2023-05-14T01:12:52.820Z,11.23
2023-05-14T01:13:11.106Z,11.23
2023-05-14T01:13:33.801Z,11.23
2023-05-14T01:13:55.430Z,11.22
2023-05-14T01:14:17.457Z,11.22
2023-05-14T01:14:36.510Z,11.23
2023-05-14T01:14:55.696Z,11.23
2023-05-14T01:15:12.052Z,11.24
2023-05-14T01:15:26.619Z,11.22
2023-05-14T01:15:40.010Z,11.24
2023-05-14T01:15:54.163Z,11.24
2023-05-14T01:16:12.168Z,11.23
2023-05-14T01:16:27.372Z,11.25
2023-05-14T01:16:40.740Z,11.24
2023-05-14T01:16:56.670Z,11.25
2023-05-14T01:17:11.749Z,11.25
2023-05-14T01:17:27.392Z,11.24
2023-05-14T01:17:42.898Z,11.24
2023-05-14T01:17:59.114Z,11.22
2023-05-14T01:18:13.905Z,11.24
2023-05-14T01:18:28.073Z,11.24
2023-05-14T01:18:43.014Z,11.24
2023-05-14T01:18:56.984Z,11.24
2023-05-14T01:19:21.305Z,11.25
2023-05-14T01:19:37.914Z,11.27
2023-05-14T01:19:51.321Z,11.26
2023-05-14T01:20:04.648Z,11.26
2023-05-14T01:20:17.415Z,11.25
2023-05-14T01:20:29.188Z,11.24
2023-05-14T01:20:42.509Z,11.24
2023-05-14T01:20:54.475Z,11.22
2023-05-14T01:21:18.047Z,11.25
2023-05-14T01:21:38.007Z,11.22
2023-05-14T01:21:49.751Z,11.24
2023-05-14T01:22:01.788Z,11.24
2023-05-14T01:22:13.626Z,11.23
2023-05-14T01:22:25.341Z,11.22
2023-05-14T01:22:37.287Z,11.23
2023-05-14T01:22:49.070Z,11.23
2023-05-14T01:23:00.862Z,11.24
2023-05-14T01:23:12.682Z,11.23
2023-05-14T01:23:24.391Z,11.24
2023-05-14T01:23:36.741Z,11.23
2023-05-14T01:23:48.515Z,11.24
2023-05-14T01:24:00.621Z,11.23
2023-05-14T01:24:12.426Z,11.21
2023-05-14T01:24:24.106Z,11.22
2023-05-14T01:24:36.002Z,11.22
2023-05-14T01:24:47.705Z,11.22
2023-05-14T01:24:59.464Z,11.23
2023-05-14T01:25:11.236Z,11.22
2023-05-14T01:25:23.183Z,11.22
2023-05-14T01:25:34.917Z,11.22
2023-05-14T01:25:46.832Z,11.21
2023-05-14T01:25:58.610Z,11.22
2023-05-14T01:26:10.352Z,11.21
2023-05-14T01:26:22.073Z,11.21
2023-05-14T01:26:34.044Z,11.21
2023-05-14T01:26:45.823Z,11.21
2023-05-14T01:27:03.829Z,11.23
2023-05-14T01:27:21.914Z,11.23
2023-05-14T01:27:38.674Z,11.23
2023-05-14T01:27:58.127Z,11.22
2023-05-14T01:28:15.644Z,11.22
2023-05-14T01:28:32.704Z,11.21
2023-05-14T01:28:45.277Z,11.20
2023-05-14T01:29:03.917Z,11.21
2023-05-14T01:29:21.355Z,11.18
2023-05-14T01:29:36.883Z,11.17
2023-05-14T01:29:53.473Z,11.18
2023-05-14T01:30:19.254Z,11.18
2023-05-14T01:30:35.665Z,11.17
2023-05-14T01:30:55.712Z,11.18
2023-05-14T01:31:12.410Z,11.17
2023-05-14T01:31:26.432Z,11.14
2023-05-14T01:31:41.543Z,11.16
2023-05-14T01:31:55.738Z,11.16
2023-05-14T01:32:09.756Z,11.16
2023-05-14T01:32:23.006Z,11.17
2023-05-14T01:32:35.888Z,11.15
2023-05-14T01:32:50.981Z,11.16
2023-05-14T01:33:06.173Z,11.16
2023-05-14T01:33:19.658Z,11.17
2023-05-14T01:33:35.064Z,11.14
2023-05-14T01:33:48.353Z,11.14
2023-05-14T01:34:02.042Z,11.16
2023-05-14T01:34:15.754Z,11.16
2023-05-14T01:34:29.762Z,11.16
2023-05-14T01:34:41.963Z,11.15
2023-05-14T01:34:57.086Z,11.13
2023-05-14T01:35:09.975Z,11.14
2023-05-14T01:35:23.675Z,11.14
2023-05-14T01:35:35.883Z,11.14
2023-05-14T01:35:48.843Z,11.14
2023-05-14T01:36:01.044Z,11.14
2023-05-14T01:36:13.309Z,11.13
2023-05-14T01:36:25.456Z,11.12
2023-05-14T01:36:40.254Z,11.11
2023-05-14T01:36:53.039Z,11.10
2023-05-14T01:37:06.394Z,11.10
2023-05-14T01:37:18.360Z,11.12
2023-05-14T01:37:31.054Z,11.11
2023-05-14T01:37:44.240Z,11.10
2023-05-14T01:38:00.870Z,11.09
2023-05-14T01:38:15.878Z,11.10
2023-05-14T01:38:28.349Z,11.11
2023-05-14T01:38:40.637Z,11.08
2023-05-14T01:38:53.682Z,11.09
2023-05-14T01:39:06.684Z,11.06
2023-05-14T01:39:19.584Z,11.08
2023-05-14T01:39:32.875Z,11.07
2023-05-14T01:39:45.752Z,11.07
2023-05-14T01:39:59.059Z,11.08
2023-05-14T01:40:11.369Z,11.07
2023-05-14T01:40:23.578Z,11.06
2023-05-14T01:40:36.632Z,11.05
2023-05-14T01:40:50.413Z,11.05
2023-05-14T01:41:03.250Z,11.05
2023-05-14T01:41:16.433Z,11.04
2023-05-14T01:41:29.568Z,11.04
2023-05-14T01:41:42.433Z,11.04
2023-05-14T01:41:55.059Z,11.04
2023-05-14T01:42:07.820Z,11.04
2023-05-14T01:42:19.931Z,11.04
2023-05-14T01:42:32.978Z,11.04
2023-05-14T01:42:45.631Z,11.03
2023-05-14T01:42:57.684Z,11.02
2023-05-14T01:43:09.875Z,11.01
2023-05-14T01:43:22.938Z,11.02
2023-05-14T01:43:35.471Z,11.03
2023-05-14T01:43:47.987Z,11.03
2023-05-14T01:43:59.803Z,11.03
2023-05-14T01:44:12.666Z,11.02
2023-05-14T01:44:24.915Z,11.02
2023-05-14T01:44:36.649Z,11.01
2023-05-14T01:44:48.387Z,11.02
2023-05-14T01:45:00.651Z,11.01
2023-05-14T01:45:12.620Z,11.01
2023-05-14T01:45:24.653Z,11.02
2023-05-14T01:45:37.133Z,11.00
2023-05-14T01:45:49.028Z,11.01
2023-05-14T01:46:00.836Z,10.99
2023-05-14T01:46:12.998Z,11.01
2023-05-14T01:46:24.835Z,11.01
2023-05-14T01:46:36.710Z,11.00
2023-05-14T01:46:48.514Z,11.00
2023-05-14T01:47:00.311Z,11.00
2023-05-14T01:47:11.992Z,11.00
2023-05-14T01:47:23.684Z,11.00
2023-05-14T01:47:35.400Z,10.98
2023-05-14T01:47:47.155Z,10.98
2023-05-14T01:47:59.056Z,10.97
2023-05-14T01:48:10.962Z,10.98
2023-05-14T01:48:22.922Z,11.00
2023-05-14T01:48:34.610Z,10.99
2023-05-14T01:48:46.385Z,10.99
2023-05-14T01:48:58.096Z,10.98
2023-05-14T01:49:09.829Z,10.98
2023-05-14T01:49:21.540Z,10.99
2023-05-14T01:49:33.296Z,10.99
2023-05-14T01:49:44.988Z,10.99
2023-05-14T01:49:56.727Z,11.00
2023-05-14T01:50:09.105Z,11.00
2023-05-14T01:50:21.207Z,11.00
2023-05-14T01:50:33.090Z,10.99
2023-05-14T01:50:44.811Z,10.98
2023-05-14T01:50:56.548Z,10.98
2023-05-14T01:51:08.304Z,10.97
2023-05-14T01:51:19.985Z,10.98
2023-05-14T01:51:31.863Z,10.97
2023-05-14T01:51:44.975Z,10.98
2023-05-14T01:51:56.671Z,10.99
2023-05-14T01:52:08.768Z,10.96
2023-05-14T01:52:20.459Z,10.98
2023-05-14T01:52:32.157Z,10.98
2023-05-14T01:52:43.980Z,10.98
2023-05-14T01:52:55.676Z,10.99
2023-05-14T01:53:07.484Z,10.98
2023-05-14T01:53:19.132Z,11.00
2023-05-14T01:53:30.914Z,10.99
2023-05-14T01:53:42.729Z,10.99
2023-05-14T01:53:54.427Z,11.01
2023-05-14T01:54:06.108Z,10.99
2023-05-14T01:54:17.798Z,11.01
2023-05-14T01:54:30.144Z,11.01
2023-05-14T01:54:41.854Z,10.99
2023-05-14T01:54:53.622Z,11.02
2023-05-14T01:55:06.517Z,11.01
2023-05-14T01:55:18.281Z,11.02
2023-05-14T01:55:29.998Z,11.02
2023-05-14T01:55:41.678Z,11.01
2023-05-14T01:55:53.384Z,11.01
2023-05-14T01:56:05.682Z,11.00
2023-05-14T01:56:18.476Z,11.01
2023-05-14T01:56:30.376Z,11.02
2023-05-14T01:56:42.145Z,11.02
2023-05-14T01:56:54.010Z,11.02
2023-05-14T01:57:05.738Z,11.03
2023-05-14T01:57:17.417Z,11.04
2023-05-14T01:57:29.145Z,11.04
2023-05-14T01:57:40.902Z,11.05
2023-05-14T01:57:52.884Z,11.05
2023-05-14T01:58:04.662Z,11.05
2023-05-14T01:58:16.507Z,11.05
2023-05-14T01:58:28.690Z,11.05
2023-05-14T01:58:40.422Z,11.06
2023-05-14T01:58:52.637Z,11.04
2023-05-14T01:59:04.342Z,11.05
2023-05-14T01:59:16.076Z,11.01
2023-05-14T01:59:27.776Z,11.05
2023-05-14T01:59:39.532Z,11.06
2023-05-14T01:59:51.229Z,11.05
2023-05-14T02:00:03.580Z,11.05
2023-05-14T02:00:25.968Z,11.06
2023-05-14T02:00:37.798Z,11.06
2023-05-14T02:00:49.457Z,11.06
2023-05-14T02:01:01.218Z,11.06
2023-05-14T02:01:13.035Z,11.05
2023-05-14T02:01:24.822Z,11.07
2023-05-14T02:01:36.529Z,11.06
2023-05-14T02:01:48.379Z,11.06
2023-05-14T02:02:00.210Z,11.05
2023-05-14T02:02:12.015Z,11.06
2023-05-14T02:02:23.719Z,11.06
2023-05-14T02:02:35.488Z,11.07
2023-05-14T02:02:47.280Z,11.07
2023-05-14T02:02:59.033Z,11.06
2023-05-14T02:03:10.899Z,11.06
2023-05-14T02:03:22.635Z,11.07
2023-05-14T02:03:34.657Z,11.07
2023-05-14T02:03:46.504Z,11.06
2023-05-14T02:03:58.245Z,11.06
2023-05-14T02:04:10.015Z,11.07
2023-05-14T02:04:21.894Z,11.07
2023-05-14T02:04:33.632Z,11.06
2023-05-14T02:04:45.924Z,11.05
2023-05-14T02:04:57.620Z,11.05
2023-05-14T02:05:10.992Z,11.05
2023-05-14T02:05:22.706Z,11.06
2023-05-14T02:05:34.503Z,11.06
2023-05-14T02:05:46.192Z,11.06
2023-05-14T02:05:57.871Z,11.06
2023-05-14T02:06:09.564Z,11.06
2023-05-14T02:06:21.205Z,11.06
2023-05-14T02:06:33.446Z,11.05
2023-05-14T02:06:46.458Z,11.06
2023-05-14T02:06:58.114Z,11.07
2023-05-14T02:07:09.810Z,11.06
2023-05-14T02:07:21.531Z,11.04
2023-05-14T02:07:33.258Z,11.07
2023-05-14T02:07:45.021Z,11.06
2023-05-14T02:07:56.757Z,11.06
2023-05-14T02:08:08.575Z,11.06
2023-05-14T02:08:20.229Z,11.05
2023-05-14T02:08:33.074Z,11.06
2023-05-14T02:08:44.773Z,11.06
2023-05-14T02:08:56.451Z,11.06
2023-05-14T02:09:08.217Z,11.06
2023-05-14T02:09:19.911Z,11.07
2023-05-14T02:09:31.571Z,11.06
2023-05-14T02:09:43.441Z,11.07
2023-05-14T02:09:55.120Z,11.06
2023-05-14T02:10:08.272Z,11.07
2023-05-14T02:10:20.134Z,11.07
2023-05-14T02:10:34.747Z,11.07
2023-05-14T02:10:46.499Z,11.07
2023-05-14T02:10:58.248Z,11.07
2023-05-14T02:11:11.033Z,11.06
2023-05-14T02:11:22.704Z,11.06
2023-05-14T02:11:34.475Z,11.06
2023-05-14T02:11:46.323Z,11.07
2023-05-14T02:11:58.000Z,11.05
2023-05-14T02:12:10.208Z,11.04
2023-05-14T02:12:21.861Z,11.07
2023-05-14T02:12:33.743Z,11.05
2023-05-14T02:12:45.449Z,11.06
2023-05-14T02:12:57.241Z,11.06
2023-05-14T02:13:08.920Z,11.07
2023-05-14T02:13:20.670Z,11.07
2023-05-14T02:13:32.356Z,11.06
2023-05-14T02:13:44.052Z,11.07
2023-05-14T02:13:55.730Z,11.07
2023-05-14T02:14:07.365Z,11.04
2023-05-14T02:14:19.062Z,11.07
2023-05-14T02:14:30.778Z,11.06
2023-05-14T02:14:42.503Z,11.05
2023-05-14T02:14:54.193Z,11.06
2023-05-14T02:15:06.980Z,11.07
2023-05-14T02:15:18.822Z,11.06
2023-05-14T02:15:30.510Z,11.06
2023-05-14T02:15:42.285Z,11.06
2023-05-14T02:15:54.174Z,11.06
2023-05-14T02:16:06.616Z,11.06
2023-05-14T02:16:19.022Z,11.06
2023-05-14T02:16:30.745Z,11.08
2023-05-14T02:16:42.465Z,11.07
2023-05-14T02:16:54.279Z,11.05
2023-05-14T02:17:05.996Z,11.08
2023-05-14T02:17:17.919Z,11.07
2023-05-14T02:17:29.690Z,11.07
2023-05-14T02:17:41.487Z,11.08
2023-05-14T02:17:55.927Z,11.08
2023-05-14T02:18:07.716Z,11.08
2023-05-14T02:18:19.470Z,11.08
2023-05-14T02:18:31.222Z,11.07
2023-05-14T02:18:43.016Z,11.07
2023-05-14T02:18:54.715Z,11.08
2023-05-14T02:19:06.457Z,11.07
2023-05-14T02:19:18.224Z,11.06
2023-05-14T02:19:30.869Z,11.07
2023-05-14T02:19:42.825Z,11.08
2023-05-14T02:19:54.566Z,11.05
2023-05-14T02:20:07.597Z,11.08
2023-05-14T02:20:19.517Z,11.08
2023-05-14T02:20:31.190Z,11.08
2023-05-14T02:20:42.906Z,11.08
2023-05-14T02:20:54.736Z,11.09
2023-05-14T02:21:07.207Z,11.08
2023-05-14T02:21:18.872Z,11.08
2023-05-14T02:21:30.577Z,11.08
2023-05-14T02:21:42.267Z,11.08
2023-05-14T02:21:55.506Z,11.08
2023-05-14T02:22:07.206Z,11.09
2023-05-14T02:22:19.079Z,11.07
2023-05-14T02:22:31.158Z,11.07
2023-05-14T02:22:42.878Z,11.10
2023-05-14T02:22:54.616Z,11.08
2023-05-14T02:23:06.302Z,11.07
2023-05-14T02:23:18.181Z,11.09
2023-05-14T02:23:59.525Z,11.09
2023-05-14T02:24:11.218Z,11.09
2023-05-14T02:24:22.903Z,11.09
2023-05-14T02:24:34.584Z,11.06
2023-05-14T02:24:46.313Z,11.09
2023-05-14T02:24:58.013Z,11.10
2023-05-14T02:25:10.380Z,11.08
2023-05-14T02:25:22.162Z,11.08
2023-05-14T02:25:33.896Z,11.09
2023-05-14T02:25:45.577Z,11.10
2023-05-14T02:25:57.255Z,11.10
2023-05-14T02:26:09.371Z,11.10
2023-05-14T02:26:21.044Z,11.10
2023-05-14T02:26:32.767Z,11.09
2023-05-14T02:26:44.507Z,11.12
2023-05-14T02:26:56.195Z,11.09
2023-05-14T02:27:08.217Z,11.11
2023-05-14T02:27:19.946Z,11.12
2023-05-14T02:27:32.800Z,11.12
2023-05-14T02:27:44.481Z,11.12
2023-05-14T02:27:56.634Z,11.11
2023-05-14T02:28:08.373Z,11.12
2023-05-14T02:28:20.105Z,11.13
2023-05-14T02:28:31.790Z,11.12
2023-05-14T02:28:43.514Z,11.13
2023-05-14T02:28:57.928Z,11.12
2023-05-14T02:29:09.792Z,11.12
2023-05-14T02:29:21.439Z,11.13
2023-05-14T02:29:33.163Z,11.12
2023-05-14T02:29:44.929Z,11.13
2023-05-14T02:29:56.680Z,11.14
2023-05-14T02:30:09.660Z,11.15
2023-05-14T02:30:22.201Z,11.13
2023-05-14T02:30:33.990Z,11.13
2023-05-14T02:30:45.688Z,11.15
2023-05-14T02:30:59.003Z,11.14
2023-05-14T02:31:10.781Z,11.15
2023-05-14T02:31:22.575Z,11.14
2023-05-14T02:31:35.155Z,11.16
2023-05-14T02:31:46.887Z,11.15
2023-05-14T02:31:58.721Z,11.15
2023-05-14T02:32:10.705Z,11.15
2023-05-14T02:32:22.506Z,11.14
2023-05-14T02:32:34.451Z,11.14
2023-05-14T02:32:46.479Z,11.14
2023-05-14T02:32:58.317Z,11.15
2023-05-14T02:33:10.268Z,11.15
2023-05-14T02:33:22.189Z,11.12
2023-05-14T02:33:34.084Z,11.15
2023-05-14T02:33:45.875Z,11.15
2023-05-14T02:33:57.562Z,11.14
2023-05-14T02:34:09.857Z,11.14
2023-05-14T02:34:21.720Z,11.15
2023-05-14T02:34:33.705Z,11.16
2023-05-14T02:34:45.382Z,11.16
2023-05-14T02:34:57.090Z,11.17
2023-05-14T02:35:09.721Z,11.18
2023-05-14T02:35:22.323Z,11.16
2023-05-14T02:35:34.020Z,11.16
2023-05-14T02:35:45.710Z,11.16
2023-05-14T02:35:58.495Z,11.17
2023-05-14T02:36:10.174Z,11.17
2023-05-14T02:36:21.877Z,11.16
2023-05-14T02:36:33.571Z,11.16
2023-05-14T02:36:45.294Z,11.16
2023-05-14T02:36:58.325Z,11.15
2023-05-14T02:37:10.033Z,11.16
2023-05-14T02:37:22.180Z,11.17
2023-05-14T02:37:34.048Z,11.14
2023-05-14T02:37:45.791Z,11.15
2023-05-14T02:37:57.575Z,11.15
2023-05-14T02:38:09.282Z,11.15
2023-05-14T02:38:21.043Z,11.17
2023-05-14T02:38:33.815Z,11.15
2023-05-14T02:38:45.518Z,11.15
2023-05-14T02:38:59.420Z,11.15
2023-05-14T02:39:11.168Z,11.13
2023-05-14T02:39:22.996Z,11.16
2023-05-14T02:39:34.762Z,11.15
2023-05-14T02:39:46.460Z,11.16
2023-05-14T02:40:00.618Z,11.16
2023-05-14T02:40:12.513Z,11.16
2023-05-14T02:40:24.570Z,11.15
2023-05-14T02:40:37.084Z,11.16
2023-05-14T02:40:48.876Z,11.15
2023-05-14T02:41:01.173Z,11.16
2023-05-14T02:41:12.841Z,11.16
2023-05-14T02:41:24.528Z,11.16
2023-05-14T02:41:37.138Z,11.15
2023-05-14T02:41:48.814Z,11.16
2023-05-14T02:42:02.075Z,11.15
2023-05-14T02:42:13.744Z,11.15
2023-05-14T02:42:25.536Z,11.14
2023-05-14T02:42:37.262Z,11.14
2023-05-14T02:42:48.930Z,11.14
2023-05-14T02:43:00.745Z,11.13